Time;durP1;ratioP1;P1;durP2;ratioP2;P2;SDS_P1;SDS_P2;PMS_P1;PMS_P2;Temp;Humidity;BMP_temperature;BMP_pressure;BME280_temperature;BME280_humidity;BME280_pressure;Samples;Min_cycle;Max_cycle;Signal;HPM_P1;HPM_P2
2022/10/04 00:01:55;;;;;;;;;1.50;0.50;;;25.50;100851.96;;;;117877;1188;25500;-59
2022/10/04 00:04:46;;;;;;;;;1.00;1.00;;;25.48;100856.02;;;;117517;1188;25365;-60
2022/10/04 00:07:21;;;;;;;;;2.33;1.00;;;25.48;100852.58;;;;117884;1188;25241;-60
2022/10/04 00:10:01;;;;;;;;;1.00;1.00;;;25.47;100842.86;;;;117513;1188;25702;-59
2022/10/04 00:12:34;;;;;;;;;0.25;0.00;;;25.44;100842.83;;;;117432;1190;25237;-59
2022/10/04 00:15:14;;;;;;;;;1.25;1.25;;;25.40;100838.36;;;;117444;1188;24947;-59
2022/10/04 00:17:42;;;;;;;;;0.00;0.00;;;25.41;100837.58;;;;117464;1190;25593;-61
2022/10/04 00:20:52;;;;;;;;;1.00;1.00;;;25.40;100840.27;;;;117509;1186;25302;-59
2022/10/04 00:23:23;;;;;;;;;2.33;0.00;;;25.39;100846.55;;;;117806;1187;25579;-61
2022/10/04 00:26:00;;;;;;;;;1.75;1.00;;;25.35;100863.27;;;;117454;1189;25290;-66
2022/10/04 00:28:31;;;;;;;;;1.00;1.00;;;25.34;100878.95;;;;117816;1188;24796;-59
2022/10/04 00:31:19;;;;;;;;;1.00;1.00;;;25.29;100871.09;;;;117834;1189;24956;-60
2022/10/04 00:33:53;;;;;;;;;2.00;2.00;;;25.28;100879.86;;;;117492;1189;24743;-59
2022/10/04 00:36:24;;;;;;;;;1.50;1.50;;;25.24;100872.05;;;;117873;1187;25116;-59
2022/10/04 00:39:26;;;;;;;;;1.25;1.25;;;25.22;100871.73;;;;117474;1189;24965;-59
2022/10/04 00:42:30;;;;;;;;;2.25;2.25;;;25.26;100865.24;;;;117480;1187;25288;-59
2022/10/04 00:45:10;;;;;;;;;2.50;1.00;;;25.30;100861.42;;;;117933;1187;25315;-59
2022/10/04 00:47:45;;;;;;;;;1.00;1.00;;;25.27;100859.73;;;;117488;1188;25103;-59
2022/10/04 00:50:38;;;;;;;;;1.00;1.00;;;25.24;100861.05;;;;117398;1190;25243;-59
2022/10/04 00:53:34;;;;;;;;;1.75;1.00;;;25.17;100860.53;;;;117499;1186;24869;-59
2022/10/04 00:56:06;;;;;;;;;1.00;1.00;;;25.18;100863.78;;;;117501;1188;25139;-58
2022/10/04 00:58:44;;;;;;;;;1.00;0.25;;;25.16;100863.05;;;;117483;1189;24750;-59
2022/10/04 01:01:13;;;;;;;;;1.00;1.00;;;25.13;100865.13;;;;117512;1189;24935;-59
2022/10/04 01:03:43;;;;;;;;;2.25;0.50;;;25.11;100867.29;;;;117495;1189;24830;-59
2022/10/04 01:06:12;;;;;;;;;0.50;0.50;;;25.08;100867.54;;;;117522;1189;25463;-59
2022/10/04 01:08:52;;;;;;;;;1.00;1.00;;;25.07;100869.80;;;;117562;1188;25465;-59
2022/10/04 01:11:29;;;;;;;;;1.75;1.75;;;25.04;100868.83;;;;117514;1187;25001;-58
2022/10/04 01:14:07;;;;;;;;;0.00;0.00;;;25.05;100869.48;;;;117434;1189;25333;-59
2022/10/04 01:16:36;;;;;;;;;1.00;1.00;;;25.04;100873.48;;;;117499;1189;25610;-59
2022/10/04 01:19:25;;;;;;;;;2.00;2.00;;;25.02;100877.13;;;;117485;1188;25523;-59
2022/10/04 01:22:06;;;;;;;;;1.00;1.00;;;25.00;100877.94;;;;117485;1188;24730;-58
2022/10/04 01:24:43;;;;;;;;;0.00;0.00;;;24.97;100884.08;;;;117418;1189;25525;-59
2022/10/04 01:27:35;;;;;;;;;0.25;0.25;;;24.93;100886.93;;;;117873;1188;25714;-59
2022/10/04 01:30:08;;;;;;;;;1.33;1.00;;;24.91;100894.36;;;;117483;1188;24883;-58
2022/10/04 01:32:37;;;;;;;;;1.75;1.25;;;24.89;100899.05;;;;117533;1189;25343;-59
2022/10/04 01:35:08;;;;;;;;;0.00;0.00;;;24.87;100902.09;;;;117535;1187;25575;-59
2022/10/04 01:37:38;;;;;;;;;2.00;2.00;;;24.82;100905.08;;;;117502;1189;25617;-59
2022/10/04 01:40:08;;;;;;;;;0.00;0.00;;;24.83;100902.17;;;;117841;1187;25475;-59
2022/10/04 01:42:50;;;;;;;;;0.75;0.75;;;24.82;100906.38;;;;117522;1188;25327;-58
2022/10/04 01:45:55;;;;;;;;;1.00;1.00;;;24.80;100911.36;;;;117462;1189;25552;-62
2022/10/04 01:48:29;;;;;;;;;1.00;1.00;;;24.81;100913.61;;;;117172;1191;25256;-59
2022/10/04 01:51:14;;;;;;;;;4.00;1.25;;;24.83;100915.63;;;;117448;1188;25352;-58
2022/10/04 01:53:48;;;;;;;;;2.00;1.00;;;24.83;100918.92;;;;117505;1188;25260;-58
2022/10/04 01:56:21;;;;;;;;;1.00;1.00;;;24.83;100920.17;;;;117512;1188;25301;-59
2022/10/04 01:58:57;;;;;;;;;0.67;0.33;;;24.78;100924.41;;;;117516;1188;24935;-59
2022/10/04 02:01:42;;;;;;;;;1.00;1.00;;;24.75;100923.93;;;;117518;1188;25373;-59
2022/10/04 02:04:16;;;;;;;;;3.00;3.00;;;24.74;100925.71;;;;117882;1187;25614;-58
2022/10/04 02:06:53;;;;;;;;;3.00;1.00;;;24.72;100924.37;;;;117491;1188;25396;-59
2022/10/04 02:09:28;;;;;;;;;2.50;2.00;;;24.71;100925.79;;;;117873;1187;25779;-58
2022/10/04 02:11:57;;;;;;;;;1.33;1.33;;;24.68;100926.40;;;;117828;1187;25513;-59
2022/10/04 02:14:34;;;;;;;;;2.00;2.00;;;24.65;100931.76;;;;117486;1187;25305;-58
2022/10/04 02:17:09;;;;;;;;;1.33;1.33;;;24.63;100933.56;;;;117506;1189;24968;-59
2022/10/04 02:19:41;;;;;;;;;2.25;1.00;;;24.62;100931.54;;;;117868;1188;25557;-58
2022/10/04 02:22:10;;;;;;;;;2.00;2.00;;;24.62;100932.59;;;;117840;1187;25052;-58
2022/10/04 02:24:44;;;;;;;;;1.00;1.00;;;24.60;100933.07;;;;117476;1189;25536;-60
2022/10/04 02:27:13;;;;;;;;;1.00;1.00;;;24.57;100935.34;;;;117820;1188;25677;-60
2022/10/04 02:29:42;;;;;;;;;1.50;1.50;;;24.56;100935.98;;;;117429;1189;25375;-59
2022/10/04 02:35:00;;;;;;;;;2.75;2.75;;;24.53;100946.67;;;;117593;1188;25525;-59
2022/10/04 02:37:29;;;;;;;;;1.50;1.00;;;24.50;100948.19;;;;117512;1189;25085;-60
2022/10/04 02:40:07;;;;;;;;;2.00;2.00;;;24.49;100952.42;;;;117389;1190;24841;-64
2022/10/04 02:43:15;;;;;;;;;2.00;1.00;;;24.50;100958.65;;;;117493;1186;25204;-59
2022/10/04 02:45:50;;;;;;;;;2.00;2.00;;;24.56;100963.13;;;;117343;1189;24948;-58
2022/10/04 02:48:30;;;;;;;;;2.00;2.00;;;24.55;100966.26;;;;117492;1189;24887;-59
2022/10/04 02:51:13;;;;;;;;;2.33;2.33;;;24.53;100969.23;;;;117497;1188;25192;-60
2022/10/04 02:54:26;;;;;;;;;3.50;2.00;;;24.51;100973.48;;;;117471;1188;25478;-59
2022/10/04 02:56:56;;;;;;;;;2.00;1.75;;;24.52;100977.70;;;;117444;1189;25189;-65
2022/10/04 02:59:25;;;;;;;;;2.00;2.00;;;24.52;100981.70;;;;117514;1189;25514;-59
2022/10/04 03:01:58;;;;;;;;;2.00;2.00;;;24.52;100982.80;;;;117488;1188;25349;-58
2022/10/04 03:04:31;;;;;;;;;4.00;2.75;;;24.48;100984.06;;;;117524;1188;24896;-59
2022/10/04 03:07:03;;;;;;;;;1.00;1.00;;;24.46;100981.48;;;;117516;1188;25231;-59
2022/10/04 03:09:31;;;;;;;;;4.00;3.25;;;24.46;100980.49;;;;117520;1189;25524;-58
2022/10/04 03:12:02;;;;;;;;;4.33;3.00;;;24.45;100984.02;;;;117461;1189;25504;-61
2022/10/04 03:14:31;;;;;;;;;2.00;2.00;;;24.44;100985.95;;;;117467;1190;25388;-59
2022/10/04 03:17:02;;;;;;;;;2.75;2.00;;;24.48;100987.48;;;;117444;1189;25690;-59
2022/10/04 03:19:32;;;;;;;;;3.00;3.00;;;24.55;100991.25;;;;117418;1190;25022;-60
2022/10/04 03:22:08;;;;;;;;;2.00;2.00;;;24.51;100991.88;;;;117395;1189;24730;-59
2022/10/04 03:24:47;;;;;;;;;2.00;2.00;;;24.47;100992.94;;;;117383;1189;24838;-59
2022/10/04 03:27:19;;;;;;;;;3.50;3.50;;;24.46;100993.45;;;;117419;1190;25534;-59
2022/10/04 03:29:49;;;;;;;;;3.25;3.00;;;24.48;100993.73;;;;117478;1189;25666;-60
2022/10/04 03:32:20;;;;;;;;;2.25;2.25;;;24.47;100995.16;;;;117458;1189;25822;-59
2022/10/04 03:35:01;;;;;;;;;2.00;2.00;;;24.45;100998.17;;;;117454;1190;25211;-59
2022/10/04 03:37:33;;;;;;;;;3.00;3.00;;;24.46;101000.15;;;;117447;1189;25382;-61
2022/10/04 03:40:03;;;;;;;;;4.00;3.00;;;24.48;101002.08;;;;117474;1188;25297;-59
2022/10/04 03:42:34;;;;;;;;;2.33;2.33;;;24.47;101001.36;;;;117482;1189;25420;-65
2022/10/04 03:45:10;;;;;;;;;2.00;2.00;;;24.44;101003.09;;;;117448;1189;25563;-59
2022/10/04 03:47:42;;;;;;;;;4.67;4.67;;;24.43;101004.68;;;;117410;1190;25346;-59
2022/10/04 03:50:29;;;;;;;;;5.67;3.00;;;24.43;101011.45;;;;117447;1189;25095;-60
2022/10/04 03:53:03;;;;;;;;;3.75;3.75;;;24.42;101018.69;;;;117447;1190;25627;-59
2022/10/04 03:55:35;;;;;;;;;2.50;2.50;;;24.42;101021.45;;;;117464;1189;25745;-60
2022/10/04 03:58:05;;;;;;;;;4.33;2.00;;;24.42;101026.52;;;;117424;1190;25489;-60
2022/10/04 04:00:38;;;;;;;;;3.75;3.50;;;24.41;101034.70;;;;117459;1189;25696;-60
2022/10/04 04:03:10;;;;;;;;;4.25;3.00;;;24.40;101036.32;;;;117492;1188;25375;-60
2022/10/04 04:06:02;;;;;;;;;4.00;4.00;;;24.39;101040.11;;;;117536;1188;24903;-59
2022/10/04 04:08:36;;;;;;;;;2.75;2.75;;;24.41;101041.64;;;;117493;1189;24751;-59
2022/10/04 04:11:06;;;;;;;;;7.33;5.33;;;24.42;101044.42;;;;117478;1189;24798;-59
2022/10/04 04:14:09;;;;;;;;;2.00;2.00;;;24.39;101046.66;;;;117497;1189;24859;-62
2022/10/04 04:16:38;;;;;;;;;4.00;4.00;;;24.40;101054.69;;;;117603;1186;24939;-59
2022/10/04 04:19:12;;;;;;;;;2.33;2.00;;;24.41;101062.73;;;;117503;1188;25043;-60
2022/10/04 04:21:40;;;;;;;;;4.00;4.00;;;24.40;101073.13;;;;117496;1187;24811;-59
2022/10/04 04:24:24;;;;;;;;;4.00;4.00;;;24.38;101078.94;;;;117564;1189;25411;-58
2022/10/04 04:26:56;;;;;;;;;5.00;4.75;;;24.38;101081.29;;;;117501;1187;25236;-58
2022/10/04 04:29:30;;;;;;;;;3.75;2.00;;;24.38;101081.87;;;;117893;1187;25643;-59
2022/10/04 04:32:13;;;;;;;;;4.00;3.33;;;24.38;101091.05;;;;117520;1188;25197;-59
2022/10/04 04:34:53;;;;;;;;;3.50;2.00;;;24.39;101093.64;;;;117498;1189;24813;-59
2022/10/04 04:37:21;;;;;;;;;4.50;4.00;;;24.40;101099.05;;;;117522;1188;25013;-58
2022/10/04 04:39:53;;;;;;;;;5.75;4.25;;;24.39;101102.89;;;;117489;1188;25366;-59
2022/10/04 04:42:32;;;;;;;;;7.75;5.00;;;24.38;101102.98;;;;117498;1186;25311;-58
2022/10/04 04:45:15;;;;;;;;;3.50;3.00;;;24.37;101101.27;;;;117519;1189;25539;-61
2022/10/04 04:47:49;;;;;;;;;5.25;5.00;;;24.38;101105.01;;;;117857;1188;24747;-61
2022/10/04 04:50:19;;;;;;;;;5.75;5.00;;;24.40;101109.70;;;;117873;1187;25495;-58
2022/10/04 04:52:59;;;;;;;;;5.25;4.00;;;24.38;101113.38;;;;117499;1189;25145;-60
2022/10/04 04:55:29;;;;;;;;;4.00;4.00;;;24.38;101115.39;;;;117536;1187;25181;-59
2022/10/04 04:58:21;;;;;;;;;6.00;6.00;;;24.40;101118.48;;;;117411;1189;24952;-59
2022/10/04 05:01:03;;;;;;;;;5.50;4.00;;;24.41;101121.71;;;;117458;1189;24763;-58
2022/10/04 05:03:33;;;;;;;;;7.25;5.25;;;24.39;101120.63;;;;117490;1190;24895;-61
2022/10/04 05:06:03;;;;;;;;;7.00;5.25;;;24.40;101129.45;;;;117471;1189;25173;-59
2022/10/04 05:08:34;;;;;;;;;6.25;4.25;;;24.39;101130.70;;;;117438;1189;24717;-60
2022/10/04 05:11:08;;;;;;;;;4.50;4.50;;;24.43;101133.23;;;;117414;1189;25154;-58
2022/10/04 05:13:43;;;;;;;;;5.25;4.50;;;24.46;101135.06;;;;117406;1189;25619;-59
2022/10/04 05:16:22;;;;;;;;;4.33;4.33;;;24.45;101135.08;;;;117472;1189;24732;-64
2022/10/04 05:18:57;;;;;;;;;5.25;5.25;;;24.51;101139.02;;;;117695;1186;25019;-61
2022/10/04 05:21:30;;;;;;;;;7.75;7.00;;;24.54;101138.48;;;;117399;1189;25287;-60
2022/10/04 05:24:13;;;;;;;;;5.00;3.33;;;24.54;101144.17;;;;117397;1189;25576;-62
2022/10/04 05:26:41;;;;;;;;;4.67;3.67;;;24.57;101140.97;;;;117487;1189;25482;-61
2022/10/04 05:29:16;;;;;;;;;8.67;6.00;;;24.57;101144.36;;;;117592;1188;25024;-63
2022/10/04 05:31:51;;;;;;;;;9.33;7.00;;;24.59;101145.58;;;;117447;1189;25043;-61
2022/10/04 05:34:25;;;;;;;;;6.50;6.25;;;24.60;101150.61;;;;117420;1189;25239;-59
2022/10/04 05:37:25;;;;;;;;;8.00;6.50;;;24.60;101154.05;;;;117422;1189;25186;-60
2022/10/04 05:40:26;;;;;;;;;9.50;6.50;;;24.64;101164.11;;;;117384;1189;25168;-71
2022/10/04 05:42:57;;;;;;;;;10.00;7.00;;;24.70;101168.89;;;;117593;1188;25160;-70
2022/10/04 05:45:27;;;;;;;;;10.00;9.00;;;24.76;101172.16;;;;117526;1188;24813;-73
2022/10/04 05:47:57;;;;;;;;;10.75;9.75;;;24.84;101176.15;;;;117612;1188;24731;-70
2022/10/04 05:50:40;;;;;;;;;16.00;10.00;;;24.78;101179.15;;;;117884;1188;24802;-69
2022/10/04 05:53:09;;;;;;;;;14.00;11.25;;;24.86;101183.94;;;;117556;1188;25525;-67
2022/10/04 05:55:58;;;;;;;;;8.75;8.00;;;24.88;101186.15;;;;117911;1188;25501;-68
2022/10/04 05:58:33;;;;;;;;;10.67;9.00;;;24.96;101192.42;;;;117487;1190;25185;-67
2022/10/04 06:01:07;;;;;;;;;11.50;9.00;;;24.99;101195.07;;;;117538;1189;25601;-65
2022/10/04 06:04:20;;;;;;;;;13.00;11.00;;;24.92;101194.85;;;;117793;1187;24871;-65
2022/10/04 06:07:15;;;;;;;;;12.50;9.00;;;24.93;101200.79;;;;117297;1190;25681;-67
2022/10/04 06:10:10;;;;;;;;;15.33;9.00;;;24.96;101205.58;;;;117347;1190;25265;-62
2022/10/04 06:12:46;;;;;;;;;12.75;7.75;;;24.96;101204.45;;;;117460;1189;24736;-62
2022/10/04 06:15:32;;;;;;;;;10.00;8.00;;;24.96;101208.95;;;;117490;1188;24913;-62
2022/10/04 06:18:08;;;;;;;;;8.75;8.00;;;24.95;101212.45;;;;118175;1188;25708;-66
2022/10/04 06:20:45;;;;;;;;;9.50;9.50;;;25.02;101209.87;;;;117582;1189;25205;-61
2022/10/04 06:23:17;;;;;;;;;8.50;7.50;;;25.10;101212.29;;;;117435;1190;24750;-61
2022/10/04 06:25:56;;;;;;;;;9.75;7.75;;;25.06;101216.63;;;;117448;1189;24691;-64
2022/10/04 06:28:31;;;;;;;;;7.00;7.00;;;24.97;101220.41;;;;117407;1189;25180;-66
2022/10/04 06:31:23;;;;;;;;;10.50;8.00;;;24.96;101223.70;;;;117433;1190;25106;-61
2022/10/04 06:34:21;;;;;;;;;6.00;5.50;;;24.92;101226.41;;;;117470;1189;25106;-61
2022/10/04 06:37:11;;;;;;;;;6.75;4.75;;;24.93;101233.57;;;;117449;1190;25517;-61
2022/10/04 06:40:16;;;;;;;;;7.25;6.00;;;24.92;101239.98;;;;117441;1189;25098;-61
2022/10/04 06:43:10;;;;;;;;;6.00;5.25;;;24.93;101242.23;;;;117385;1190;24679;-62
2022/10/04 06:46:07;;;;;;;;;8.33;7.00;;;24.99;101247.48;;;;117445;1190;25622;-61
2022/10/04 06:48:48;;;;;;;;;7.50;5.00;;;25.03;101249.36;;;;117470;1187;25627;-61
2022/10/04 06:51:19;;;;;;;;;7.00;6.33;;;25.02;101254.03;;;;117477;1188;25497;-61
2022/10/04 06:54:05;;;;;;;;;5.00;4.00;;;25.01;101255.48;;;;117480;1189;24831;-62
2022/10/04 06:56:34;;;;;;;;;7.00;7.00;;;25.00;101256.66;;;;117446;1189;24799;-62
2022/10/04 06:59:16;;;;;;;;;5.00;5.00;;;25.00;101259.02;;;;117455;1188;25050;-61
2022/10/04 07:01:50;;;;;;;;;5.75;4.50;;;24.98;101261.55;;;;117853;1187;25571;-60
2022/10/04 07:04:37;;;;;;;;;5.50;4.00;;;24.98;101264.21;;;;117733;1188;25129;-61
2022/10/04 07:07:35;;;;;;;;;3.50;2.50;;;25.04;101263.50;;;;117565;1186;24932;-61
2022/10/04 07:10:25;;;;;;;;;5.50;5.25;;;25.03;101267.85;;;;117511;1189;25499;-60
2022/10/04 07:12:59;;;;;;;;;5.00;5.00;;;25.05;101270.63;;;;117488;1188;24838;-61
2022/10/04 07:15:33;;;;;;;;;4.33;4.33;;;25.04;101275.80;;;;117500;1189;25719;-61
2022/10/04 07:18:07;;;;;;;;;3.00;2.00;;;25.01;101277.76;;;;117512;1189;25743;-60
2022/10/04 07:20:36;;;;;;;;;6.33;4.67;;;25.07;101282.05;;;;117449;1189;25503;-61
2022/10/04 07:23:13;;;;;;;;;4.00;3.50;;;25.07;101286.64;;;;117591;1189;24713;-60
2022/10/04 07:25:45;;;;;;;;;7.00;5.00;;;25.09;101288.30;;;;117753;1187;25015;-61
2022/10/04 07:31:09;;;;;;;;;3.75;3.75;;;25.08;101291.09;;;;117820;1187;24915;-60
2022/10/04 07:33:44;;;;;;;;;4.00;4.00;;;25.06;101290.67;;;;117508;1188;25729;-65
2022/10/04 07:36:17;;;;;;;;;5.75;5.75;;;25.05;101291.56;;;;117528;1188;25506;-60
2022/10/04 07:38:58;;;;;;;;;4.75;3.50;;;25.05;101291.48;;;;117854;1188;25386;-61
2022/10/04 07:41:51;;;;;;;;;6.25;4.50;;;25.07;101296.11;;;;117821;1188;25433;-61
2022/10/04 07:44:36;;;;;;;;;4.00;3.50;;;25.08;101298.56;;;;117497;1189;25467;-60
2022/10/04 07:47:04;;;;;;;;;5.50;4.50;;;25.08;101299.24;;;;117506;1189;25154;-60
2022/10/04 07:49:38;;;;;;;;;5.75;4.75;;;25.11;101301.59;;;;117518;1189;25707;-60
2022/10/04 07:52:09;;;;;;;;;6.75;4.50;;;25.12;101301.05;;;;117870;1187;25071;-60
2022/10/04 07:55:08;;;;;;;;;5.33;4.33;;;25.07;101303.48;;;;117465;1188;24990;-59
2022/10/04 07:57:39;;;;;;;;;5.50;4.25;;;25.11;101306.55;;;;117441;1190;25641;-60
2022/10/04 08:00:16;;;;;;;;;7.25;5.75;;;25.10;101313.38;;;;117422;1190;25020;-61
2022/10/04 08:03:17;;;;;;;;;7.00;7.00;;;25.07;101315.05;;;;117428;1189;25203;-61
2022/10/04 08:06:10;;;;;;;;;6.00;5.67;;;25.11;101318.94;;;;117198;1190;25418;-63
2022/10/04 08:08:57;;;;;;;;;8.00;5.33;;;25.19;101321.02;;;;117803;1188;24859;-65
2022/10/04 08:11:47;;;;;;;;;3.00;3.00;;;25.23;101322.80;;;;117528;1189;24816;-64
2022/10/04 08:14:55;;;;;;;;;4.50;4.25;;;25.23;101324.39;;;;117882;1188;25165;-61
2022/10/04 08:17:29;;;;;;;;;5.25;4.00;;;25.28;101327.29;;;;117473;1189;25302;-60
2022/10/04 08:20:06;;;;;;;;;3.00;3.00;;;25.23;101326.27;;;;117832;1186;25670;-61
2022/10/04 08:22:52;;;;;;;;;5.33;4.67;;;25.20;101328.36;;;;117476;1188;24833;-61
2022/10/04 08:25:27;;;;;;;;;5.50;3.25;;;25.19;101333.95;;;;117821;1187;25497;-60
2022/10/04 08:31:15;;;;;;;;;4.75;4.50;;;25.22;101337.95;;;;117854;1188;25515;-62
2022/10/04 08:34:22;;;;;;;;;4.50;3.25;;;25.26;101341.34;;;;117846;1188;25402;-65
2022/10/04 08:37:15;;;;;;;;;5.50;4.00;;;25.31;101340.30;;;;117364;1189;25567;-66
2022/10/04 08:39:57;;;;;;;;;4.75;2.50;;;25.36;101343.11;;;;117387;1188;24939;-62
2022/10/04 08:42:40;;;;;;;;;1.25;1.25;;;25.37;101340.80;;;;117449;1188;25147;-61
2022/10/04 08:45:33;;;;;;;;;4.00;4.00;;;25.38;101340.89;;;;117481;1189;25074;-62
2022/10/04 08:48:39;;;;;;;;;6.00;4.00;;;25.44;101343.70;;;;117384;1188;24846;-62
2022/10/04 08:51:50;;;;;;;;;4.25;4.25;;;25.48;101338.61;;;;117733;1188;24978;-66
2022/10/04 08:54:26;;;;;;;;;7.50;5.25;;;25.53;101335.75;;;;117468;1189;25525;-65
2022/10/04 08:57:30;;;;;;;;;4.50;4.00;;;25.53;101338.02;;;;117427;1189;25286;-65
2022/10/04 09:00:06;;;;;;;;;6.50;4.75;;;25.56;101335.83;;;;117417;1189;25206;-65
2022/10/04 09:03:03;;;;;;;;;4.50;4.50;;;25.55;101338.68;;;;117529;1188;24725;-64
2022/10/04 09:05:50;;;;;;;;;7.00;5.25;;;25.57;101336.81;;;;117850;1187;24993;-64
2022/10/04 09:08:57;;;;;;;;;8.00;5.50;;;25.60;101339.98;;;;119493;1188;25461;-63
2022/10/04 09:11:35;;;;;;;;;6.50;5.25;;;26.05;101342.05;;;;117455;1190;26381;-65
2022/10/04 09:14:17;;;;;;;;;8.25;3.75;;;26.04;101340.98;;;;117861;1188;24722;-64
2022/10/04 09:17:06;;;;;;;;;5.25;4.00;;;25.93;101338.19;;;;117503;1189;25528;-65
2022/10/04 09:20:01;;;;;;;;;2.25;2.25;;;25.90;101344.75;;;;117836;1188;24835;-66
2022/10/04 09:23:07;;;;;;;;;6.00;4.25;;;25.90;101346.52;;;;117585;1189;25604;-65
2022/10/04 09:25:38;;;;;;;;;3.00;2.33;;;25.86;101348.46;;;;117497;1189;25461;-66
2022/10/04 09:28:48;;;;;;;;;6.00;5.25;;;25.81;101343.83;;;;117831;1187;24806;-65
2022/10/04 09:31:42;;;;;;;;;4.50;4.25;;;25.80;101344.88;;;;117034;1194;25216;-65
2022/10/04 09:34:50;;;;;;;;;5.00;5.00;;;25.84;101346.23;;;;117026;1194;24930;-65
2022/10/04 09:37:42;;;;;;;;;6.00;5.00;;;25.85;101347.20;;;;117419;1189;25163;-64
2022/10/04 09:40:35;;;;;;;;;5.75;5.75;;;25.82;101347.80;;;;117475;1189;24935;-64
2022/10/04 09:43:25;;;;;;;;;4.50;4.50;;;25.79;101344.89;;;;117486;1189;24896;-64
2022/10/04 09:46:06;;;;;;;;;5.50;3.50;;;25.74;101343.84;;;;117490;1188;25224;-64
2022/10/04 09:48:44;;;;;;;;;9.25;6.00;;;25.72;101342.30;;;;117866;1188;25572;-64
2022/10/04 09:51:30;;;;;;;;;8.75;7.25;;;25.72;101345.21;;;;117514;1189;25263;-69
2022/10/04 09:54:46;;;;;;;;;8.75;5.25;;;25.72;101344.70;;;;117867;1188;24958;-64
2022/10/04 09:57:26;;;;;;;;;4.75;4.50;;;25.72;101346.79;;;;117355;1191;25592;-65
2022/10/04 10:00:21;;;;;;;;;7.00;4.67;;;25.72;101346.27;;;;117851;1188;25306;-64
2022/10/04 10:03:22;;;;;;;;;7.33;5.33;;;25.73;101345.67;;;;117907;1187;25481;-63
2022/10/04 10:06:24;;;;;;;;;7.75;7.50;;;25.76;101341.80;;;;117297;1189;25023;-64
2022/10/04 10:09:02;;;;;;;;;7.50;5.75;;;25.77;101341.91;;;;117858;1187;25117;-64
2022/10/04 10:15:15;;;;;;;;;9.25;5.75;;;25.69;101341.94;;;;117851;1187;25331;-64
2022/10/04 10:18:23;;;;;;;;;7.75;5.75;;;25.68;101340.38;;;;117495;1188;25549;-64
2022/10/04 10:20:54;;;;;;;;;7.50;6.00;;;25.66;101342.85;;;;117827;1186;25569;-63
2022/10/04 10:23:50;;;;;;;;;7.00;7.00;;;25.63;101345.60;;;;117373;1189;26187;-64
2022/10/04 10:26:29;;;;;;;;;9.00;7.00;;;25.63;101343.23;;;;117507;1188;25108;-63
2022/10/04 10:29:05;;;;;;;;;6.50;6.50;;;25.63;101343.23;;;;117850;1187;25323;-63
2022/10/04 10:31:53;;;;;;;;;5.25;3.50;;;25.63;101346.19;;;;117506;1187;25582;-64
2022/10/04 10:34:51;;;;;;;;;5.25;4.75;;;25.64;101342.78;;;;117886;1187;25948;-72
2022/10/04 10:37:21;;;;;;;;;6.67;6.00;;;25.66;101339.54;;;;117907;1188;25128;-64
2022/10/04 10:40:07;;;;;;;;;9.00;5.00;;;25.66;101342.20;;;;117901;1188;25004;-63
2022/10/04 10:42:48;;;;;;;;;5.00;5.00;;;25.63;101346.73;;;;117510;1189;24725;-64
2022/10/04 10:45:25;;;;;;;;;6.00;5.67;;;25.61;101349.61;;;;117725;1188;25782;-66
2022/10/04 10:48:05;;;;;;;;;5.25;5.00;;;25.58;101347.31;;;;117520;1189;26573;-72
2022/10/04 10:51:10;;;;;;;;;8.50;6.50;;;25.56;101348.27;;;;117883;1188;25642;-71
2022/10/04 10:54:04;;;;;;;;;5.00;3.33;;;25.57;101349.58;;;;117499;1188;25526;-69
2022/10/04 10:56:49;;;;;;;;;8.00;6.25;;;25.54;101351.51;;;;117872;1188;25729;-63
2022/10/04 10:59:49;;;;;;;;;6.25;3.75;;;25.53;101351.37;;;;117839;1188;25551;-65
2022/10/04 11:02:55;;;;;;;;;5.00;5.00;;;25.54;101352.85;;;;117879;1186;25503;-62
2022/10/04 11:05:46;;;;;;;;;5.00;4.00;;;25.55;101355.13;;;;117872;1188;25240;-61
2022/10/04 11:08:49;;;;;;;;;4.75;4.75;;;25.53;101354.70;;;;117881;1187;25799;-61
2022/10/04 11:11:37;;;;;;;;;5.50;4.50;;;25.55;101357.02;;;;117425;1190;25398;-61
2022/10/04 11:14:21;;;;;;;;;6.50;5.50;;;25.56;101355.73;;;;117533;1187;25303;-61
2022/10/04 11:16:56;;;;;;;;;7.25;5.00;;;25.56;101353.90;;;;117499;1188;25307;-61
2022/10/04 11:19:56;;;;;;;;;9.00;5.00;;;25.51;101355.30;;;;117829;1189;25856;-64
2022/10/04 11:22:59;;;;;;;;;6.75;6.00;;;25.53;101357.48;;;;117191;1190;24956;-63
2022/10/04 11:25:59;;;;;;;;;7.25;6.50;;;25.59;101363.14;;;;117883;1188;25411;-62
2022/10/04 11:28:45;;;;;;;;;6.25;6.25;;;25.64;101364.99;;;;117496;1187;25559;-62
2022/10/04 11:31:52;;;;;;;;;5.00;4.00;;;25.63;101366.20;;;;117430;1189;25237;-62
2022/10/04 11:34:43;;;;;;;;;6.67;5.33;;;25.62;101370.94;;;;117548;1188;25222;-62
2022/10/04 11:37:37;;;;;;;;;6.75;4.75;;;25.56;101371.53;;;;117475;1189;24720;-62
2022/10/04 11:40:35;;;;;;;;;6.33;6.00;;;25.52;101373.72;;;;117826;1188;25519;-62
2022/10/04 11:43:30;;;;;;;;;5.75;5.00;;;25.49;101372.98;;;;117473;1188;25523;-62
2022/10/04 11:46:17;;;;;;;;;8.00;6.00;;;25.47;101373.36;;;;117801;1188;26317;-61
2022/10/04 11:48:54;;;;;;;;;6.50;6.00;;;25.45;101374.02;;;;117487;1189;25158;-62
2022/10/04 11:51:57;;;;;;;;;8.50;5.00;;;25.43;101376.72;;;;117521;1188;25402;-61
2022/10/04 11:54:44;;;;;;;;;6.00;6.00;;;25.43;101379.67;;;;117807;1186;25197;-62
2022/10/04 11:57:36;;;;;;;;;4.00;4.00;;;25.42;101382.25;;;;117763;1187;25496;-62
2022/10/04 12:00:19;;;;;;;;;5.00;5.00;;;25.42;101383.65;;;;117806;1188;24962;-62
2022/10/04 12:03:06;;;;;;;;;7.00;6.00;;;25.43;101388.27;;;;117813;1187;25319;-62
2022/10/04 12:05:38;;;;;;;;;6.75;6.00;;;25.44;101385.79;;;;117765;1187;25119;-61
2022/10/04 12:08:15;;;;;;;;;6.00;4.75;;;25.43;101387.13;;;;117468;1188;25613;-63
2022/10/04 12:11:17;;;;;;;;;7.50;6.00;;;25.41;101386.75;;;;117476;1189;25166;-63
2022/10/04 12:14:25;;;;;;;;;7.00;7.00;;;25.44;101389.42;;;;117530;1188;25308;-62
2022/10/04 12:17:32;;;;;;;;;6.25;6.00;;;25.47;101389.95;;;;117808;1188;25011;-68
2022/10/04 12:20:26;;;;;;;;;6.00;5.50;;;25.49;101386.30;;;;117493;1188;25469;-62
2022/10/04 12:23:21;;;;;;;;;5.33;5.33;;;25.51;101386.30;;;;117403;1189;25434;-69
2022/10/04 12:26:19;;;;;;;;;5.75;5.00;;;25.54;101384.56;;;;117475;1188;25058;-61
2022/10/04 12:29:09;;;;;;;;;3.00;2.25;;;25.48;101386.23;;;;117817;1188;24912;-60
2022/10/04 12:31:45;;;;;;;;;7.75;5.25;;;25.44;101380.66;;;;117526;1189;25380;-60
2022/10/04 12:34:23;;;;;;;;;4.50;4.00;;;25.40;101380.46;;;;117412;1190;25074;-62
2022/10/04 12:36:58;;;;;;;;;5.67;5.00;;;25.40;101380.52;;;;117455;1190;24873;-62
2022/10/04 12:39:46;;;;;;;;;3.25;3.25;;;25.37;101378.99;;;;117428;1189;25401;-62
2022/10/04 12:42:35;;;;;;;;;5.00;5.00;;;25.35;101379.46;;;;117429;1189;25216;-62
2022/10/04 12:45:22;;;;;;;;;4.50;4.25;;;25.34;101382.45;;;;117433;1189;25324;-62
2022/10/04 12:48:12;;;;;;;;;5.33;5.00;;;25.32;101383.77;;;;117453;1189;25016;-61
2022/10/04 12:50:46;;;;;;;;;4.25;4.25;;;25.32;101382.66;;;;117422;1189;25636;-61
2022/10/04 12:53:21;;;;;;;;;3.00;3.00;;;25.31;101384.70;;;;117500;1189;25464;-62
2022/10/04 12:56:00;;;;;;;;;4.50;4.50;;;25.32;101392.11;;;;117508;1188;25206;-61
2022/10/04 12:58:38;;;;;;;;;6.00;6.00;;;25.33;101393.63;;;;117515;1188;25483;-61
2022/10/04 13:01:23;;;;;;;;;6.67;6.00;;;25.35;101396.15;;;;117416;1190;25378;-61
2022/10/04 13:04:17;;;;;;;;;7.00;5.00;;;25.38;101391.73;;;;117484;1189;25270;-61
2022/10/04 13:07:17;;;;;;;;;4.75;4.50;;;25.41;101385.89;;;;117811;1186;25488;-61
2022/10/04 13:09:45;;;;;;;;;5.50;3.50;;;25.44;101385.69;;;;117453;1188;24915;-61
2022/10/04 13:13:03;;;;;;;;;6.00;3.67;;;25.51;101385.67;;;;117857;1188;25410;-61
2022/10/04 13:16:07;;;;;;;;;7.75;4.50;;;25.53;101388.05;;;;117481;1187;25156;-61
2022/10/04 13:19:01;;;;;;;;;2.00;2.00;;;25.56;101390.49;;;;117772;1187;25530;-61
2022/10/04 13:21:48;;;;;;;;;6.00;4.00;;;25.59;101389.38;;;;117543;1188;25093;-62
2022/10/04 13:24:28;;;;;;;;;3.75;3.75;;;25.53;101388.90;;;;117417;1190;24846;-61
2022/10/04 13:27:06;;;;;;;;;4.67;4.67;;;25.49;101389.43;;;;117439;1188;25184;-60